Briefing drone pour Le bosc-roger-en-roumois

Rechercher une autre localisation

Conditions de vol :


Nous sommes le : Mardi 27 juillet 2021
Il est 01:33 UTC (03:33 LT)

Lever de soleil : 03:56 UTC (05:56 LT)
Coucher de soleil : 20:09 UTC (22:09 LT)

Météo

L'essentiel des conditions de vol

VIGILANCE MÉTÉO FRANCE - Eure (27)
Vigilance Jaune : Orages
CARTE TEMSI
CARTES DES FRONTS
METAR de LFOP
LFOP 270130Z AUTO 18003KT CAVOK 15/14 Q1012

Date d'émission: 27/07/2021
Heure d'émission: 01:30 UTC
Vent: 180° pour 3 KT (6 km/h)
Visibilité horizontale: > 10 km
Plafond : Plafond et visibilité OK (CAVOK)
Température: 15 °C
Point de rosée: 14 °C
Humidité: 94%
Pression (QNH): 1012 hPa
TAF de LFOP
LFOP 262004Z 2620/2718 CNL

Conditions prévues :

Heure d'émission : Bulletin éffectué le 26 à 20:00 UTC
Prévision : Valide du 26 a 20:00 UTC au 27 a 18:00 UTC
Nuages : à 0ft (0 m)
WEBCAM POUR LE BOSC-ROGER-EN-ROUMOIS

Réglementation

Voler en sécurité

CARTES AERONAUTIQUE 1/500.000
CARTES VAC (LFOP)
SUP AIP




Chargement des AIP...
NOTAM (LE BOSC-ROGER-EN-ROUMOIS + Terrain à proximité / FIR )




Chargement des NOTAMS...
CONTACT PREFECTURE 27


Avertissement : Les données mises à disposition sont indicatives. Oxygène Drone ne pourra être tenu responsable de dégâts causés aux biens et aux personnes.